sensor_id;sensor_type;location;lat;lon;timestamp;P1;durP1;ratioP1;P2;durP2;ratioP2
55346;SDS011;41218;55.700;38.270;2022-08-19T00:03:24;5.68;;;3.75;;
55346;SDS011;41218;55.700;38.270;2022-08-19T00:08:28;11.55;;;4.30;;
55346;SDS011;41218;55.700;38.270;2022-08-19T00:13:31;7.40;;;3.78;;
55346;SDS011;41218;55.700;38.270;2022-08-19T00:18:32;6.35;;;3.67;;
55346;SDS011;41218;55.700;38.270;2022-08-19T00:23:37;6.43;;;4.13;;
55346;SDS011;41218;55.700;38.270;2022-08-19T00:28:38;6.72;;;3.97;;
55346;SDS011;41218;55.700;38.270;2022-08-19T00:33:38;9.57;;;4.80;;
55346;SDS011;41218;55.700;38.270;2022-08-19T00:38:45;7.50;;;4.78;;
55346;SDS011;41218;55.700;38.270;2022-08-19T00:49:20;8.82;;;5.50;;
55346;SDS011;41218;55.700;38.270;2022-08-19T00:54:25;10.20;;;6.10;;
55346;SDS011;41218;55.700;38.270;2022-08-19T00:59:26;12.38;;;6.40;;
55346;SDS011;41218;55.700;38.270;2022-08-19T01:04:28;11.25;;;6.55;;
55346;SDS011;41218;55.700;38.270;2022-08-19T01:09:29;8.60;;;5.85;;
55346;SDS011;41218;55.700;38.270;2022-08-19T01:14:33;9.98;;;5.93;;
55346;SDS011;41218;55.700;38.270;2022-08-19T01:19:37;9.15;;;6.18;;
55346;SDS011;41218;55.700;38.270;2022-08-19T01:24:40;10.50;;;5.60;;
55346;SDS011;41218;55.700;38.270;2022-08-19T01:29:41;8.95;;;5.68;;
55346;SDS011;41218;55.700;38.270;2022-08-19T01:34:43;11.00;;;5.68;;
55346;SDS011;41218;55.700;38.270;2022-08-19T01:39:49;9.85;;;6.20;;
55346;SDS011;41218;55.700;38.270;2022-08-19T01:44:50;9.75;;;6.18;;
55346;SDS011;41218;55.700;38.270;2022-08-19T01:49:51;10.18;;;5.75;;
55346;SDS011;41218;55.700;38.270;2022-08-19T01:54:52;10.85;;;5.97;;
55346;SDS011;41218;55.700;38.270;2022-08-19T01:59:52;13.07;;;6.07;;
55346;SDS011;41218;55.700;38.270;2022-08-19T02:04:56;9.85;;;5.97;;
55346;SDS011;41218;55.700;38.270;2022-08-19T02:09:57;9.70;;;5.75;;
55346;SDS011;41218;55.700;38.270;2022-08-19T02:15:01;14.48;;;6.30;;
55346;SDS011;41218;55.700;38.270;2022-08-19T02:20:25;10.70;;;6.03;;
55346;SDS011;41218;55.700;38.270;2022-08-19T02:25:26;9.85;;;5.63;;
55346;SDS011;41218;55.700;38.270;2022-08-19T02:30:49;11.35;;;5.55;;
55346;SDS011;41218;55.700;38.270;2022-08-19T02:35:49;8.43;;;5.30;;
55346;SDS011;41218;55.700;38.270;2022-08-19T02:40:55;8.60;;;5.68;;
55346;SDS011;41218;55.700;38.270;2022-08-19T02:46:00;10.03;;;5.70;;
55346;SDS011;41218;55.700;38.270;2022-08-19T02:51:18;11.57;;;5.45;;
55346;SDS011;41218;55.700;38.270;2022-08-19T02:56:33;11.20;;;5.72;;
55346;SDS011;41218;55.700;38.270;2022-08-19T03:01:35;10.85;;;5.85;;
55346;SDS011;41218;55.700;38.270;2022-08-19T03:06:37;13.38;;;5.85;;
55346;SDS011;41218;55.700;38.270;2022-08-19T03:11:39;10.50;;;6.30;;
55346;SDS011;41218;55.700;38.270;2022-08-19T03:16:41;11.68;;;6.05;;
55346;SDS011;41218;55.700;38.270;2022-08-19T03:21:44;9.90;;;6.10;;
55346;SDS011;41218;55.700;38.270;2022-08-19T03:26:46;10.93;;;5.85;;
55346;SDS011;41218;55.700;38.270;2022-08-19T03:31:58;10.00;;;6.07;;
55346;SDS011;41218;55.700;38.270;2022-08-19T03:37:03;10.75;;;6.07;;
55346;SDS011;41218;55.700;38.270;2022-08-19T03:42:09;12.07;;;6.40;;
55346;SDS011;41218;55.700;38.270;2022-08-19T03:47:10;12.45;;;6.30;;
55346;SDS011;41218;55.700;38.270;2022-08-19T03:52:24;9.07;;;6.22;;
55346;SDS011;41218;55.700;38.270;2022-08-19T03:57:40;12.80;;;6.15;;
55346;SDS011;41218;55.700;38.270;2022-08-19T04:02:41;12.88;;;6.45;;
55346;SDS011;41218;55.700;38.270;2022-08-19T04:08:02;9.80;;;5.95;;
55346;SDS011;41218;55.700;38.270;2022-08-19T04:13:06;13.50;;;6.50;;
55346;SDS011;41218;55.700;38.270;2022-08-19T04:18:08;14.40;;;5.53;;
55346;SDS011;41218;55.700;38.270;2022-08-19T04:23:10;8.48;;;5.70;;
55346;SDS011;41218;55.700;38.270;2022-08-19T04:28:22;11.13;;;5.30;;
55346;SDS011;41218;55.700;38.270;2022-08-19T04:33:24;8.40;;;5.43;;
55346;SDS011;41218;55.700;38.270;2022-08-19T04:38:28;10.77;;;5.10;;
55346;SDS011;41218;55.700;38.270;2022-08-19T04:43:50;10.27;;;5.18;;
55346;SDS011;41218;55.700;38.270;2022-08-19T04:48:51;7.85;;;4.93;;
55346;SDS011;41218;55.700;38.270;2022-08-19T04:53:53;9.07;;;5.45;;
55346;SDS011;41218;55.700;38.270;2022-08-19T04:58:57;10.05;;;5.18;;
55346;SDS011;41218;55.700;38.270;2022-08-19T05:04:12;11.57;;;5.20;;
55346;SDS011;41218;55.700;38.270;2022-08-19T05:09:22;9.13;;;5.45;;
55346;SDS011;41218;55.700;38.270;2022-08-19T05:14:22;9.07;;;5.03;;
55346;SDS011;41218;55.700;38.270;2022-08-19T05:19:23;8.25;;;4.78;;
55346;SDS011;41218;55.700;38.270;2022-08-19T05:24:43;10.35;;;5.05;;
55346;SDS011;41218;55.700;38.270;2022-08-19T05:35:11;9.13;;;5.35;;
55346;SDS011;41218;55.700;38.270;2022-08-19T05:40:12;11.48;;;5.15;;
55346;SDS011;41218;55.700;38.270;2022-08-19T05:45:13;10.57;;;5.90;;
55346;SDS011;41218;55.700;38.270;2022-08-19T05:50:14;10.20;;;6.10;;
55346;SDS011;41218;55.700;38.270;2022-08-19T05:55:14;11.10;;;6.13;;
55346;SDS011;41218;55.700;38.270;2022-08-19T06:00:15;8.88;;;5.85;;
55346;SDS011;41218;55.700;38.270;2022-08-19T06:05:16;10.23;;;6.07;;
55346;SDS011;41218;55.700;38.270;2022-08-19T06:10:17;10.30;;;5.85;;
55346;SDS011;41218;55.700;38.270;2022-08-19T06:15:17;10.80;;;5.78;;
55346;SDS011;41218;55.700;38.270;2022-08-19T06:20:18;9.13;;;6.03;;
55346;SDS011;41218;55.700;38.270;2022-08-19T06:25:20;11.80;;;6.28;;
55346;SDS011;41218;55.700;38.270;2022-08-19T06:30:24;8.73;;;5.75;;
55346;SDS011;41218;55.700;38.270;2022-08-19T06:35:25;8.48;;;6.03;;
55346;SDS011;41218;55.700;38.270;2022-08-19T06:40:27;9.40;;;6.63;;
55346;SDS011;41218;55.700;38.270;2022-08-19T06:45:27;9.55;;;6.30;;
55346;SDS011;41218;55.700;38.270;2022-08-19T06:50:31;9.85;;;6.40;;
55346;SDS011;41218;55.700;38.270;2022-08-19T06:55:42;9.27;;;6.15;;
55346;SDS011;41218;55.700;38.270;2022-08-19T07:00:45;7.38;;;5.82;;
55346;SDS011;41218;55.700;38.270;2022-08-19T07:05:46;8.68;;;6.35;;
55346;SDS011;41218;55.700;38.270;2022-08-19T07:10:47;8.20;;;5.93;;
55346;SDS011;41218;55.700;38.270;2022-08-19T07:15:49;9.07;;;5.90;;
55346;SDS011;41218;55.700;38.270;2022-08-19T07:20:50;11.75;;;6.28;;
55346;SDS011;41218;55.700;38.270;2022-08-19T07:25:51;12.82;;;5.07;;
55346;SDS011;41218;55.700;38.270;2022-08-19T07:30:54;7.90;;;4.53;;
55346;SDS011;41218;55.700;38.270;2022-08-19T07:35:58;5.72;;;4.03;;
55346;SDS011;41218;55.700;38.270;2022-08-19T07:40:59;6.47;;;4.00;;
55346;SDS011;41218;55.700;38.270;2022-08-19T07:46:01;9.25;;;4.00;;
55346;SDS011;41218;55.700;38.270;2022-08-19T07:51:08;5.97;;;4.13;;
55346;SDS011;41218;55.700;38.270;2022-08-19T07:56:11;6.75;;;4.00;;
55346;SDS011;41218;55.700;38.270;2022-08-19T08:01:17;5.25;;;4.05;;
55346;SDS011;41218;55.700;38.270;2022-08-19T08:06:23;4.97;;;3.70;;
55346;SDS011;41218;55.700;38.270;2022-08-19T08:12:29;5.95;;;4.20;;
55346;SDS011;41218;55.700;38.270;2022-08-19T08:17:12;6.28;;;3.67;;
55346;SDS011;41218;55.700;38.270;2022-08-19T08:22:17;5.28;;;4.07;;
55346;SDS011;41218;55.700;38.270;2022-08-19T08:27:39;7.05;;;3.92;;
55346;SDS011;41218;55.700;38.270;2022-08-19T08:32:46;6.90;;;4.15;;
55346;SDS011;41218;55.700;38.270;2022-08-19T08:37:59;6.40;;;3.78;;
55346;SDS011;41218;55.700;38.270;2022-08-19T08:43:22;5.20;;;3.63;;
55346;SDS011;41218;55.700;38.270;2022-08-19T08:53:45;4.20;;;3.40;;
55346;SDS011;41218;55.700;38.270;2022-08-19T08:59:02;3.30;;;3.00;;
55346;SDS011;41218;55.700;38.270;2022-08-19T09:04:22;4.00;;;3.33;;
55346;SDS011;41218;55.700;38.270;2022-08-19T09:09:34;5.30;;;2.83;;
55346;SDS011;41218;55.700;38.270;2022-08-19T09:14:48;6.18;;;3.13;;
55346;SDS011;41218;55.700;38.270;2022-08-19T09:19:54;3.80;;;3.00;;
55346;SDS011;41218;55.700;38.270;2022-08-19T09:24:57;5.07;;;3.10;;
55346;SDS011;41218;55.700;38.270;2022-08-19T09:29:58;5.45;;;2.67;;
55346;SDS011;41218;55.700;38.270;2022-08-19T09:35:02;5.07;;;3.00;;
55346;SDS011;41218;55.700;38.270;2022-08-19T09:40:03;3.47;;;2.47;;
55346;SDS011;41218;55.700;38.270;2022-08-19T09:45:04;3.97;;;2.88;;
55346;SDS011;41218;55.700;38.270;2022-08-19T09:50:07;4.60;;;2.42;;
55346;SDS011;41218;55.700;38.270;2022-08-19T09:55:12;4.95;;;2.95;;
55346;SDS011;41218;55.700;38.270;2022-08-19T10:00:13;3.42;;;2.60;;
55346;SDS011;41218;55.700;38.270;2022-08-19T10:05:17;3.95;;;3.03;;
55346;SDS011;41218;55.700;38.270;2022-08-19T10:10:53;4.85;;;2.95;;
55346;SDS011;41218;55.700;38.270;2022-08-19T10:16:05;5.85;;;3.00;;
55346;SDS011;41218;55.700;38.270;2022-08-19T10:21:18;3.63;;;2.90;;
55346;SDS011;41218;55.700;38.270;2022-08-19T10:26:31;3.47;;;2.72;;
55346;SDS011;41218;55.700;38.270;2022-08-19T10:31:34;6.63;;;3.42;;
55346;SDS011;41218;55.700;38.270;2022-08-19T10:36:35;3.42;;;3.08;;
55346;SDS011;41218;55.700;38.270;2022-08-19T10:41:37;4.85;;;3.10;;
55346;SDS011;41218;55.700;38.270;2022-08-19T10:46:42;5.93;;;2.80;;
55346;SDS011;41218;55.700;38.270;2022-08-19T10:51:50;4.22;;;3.15;;
55346;SDS011;41218;55.700;38.270;2022-08-19T10:57:21;4.38;;;2.83;;
55346;SDS011;41218;55.700;38.270;2022-08-19T11:02:29;6.65;;;3.47;;
55346;SDS011;41218;55.700;38.270;2022-08-19T11:07:50;6.40;;;3.40;;
55346;SDS011;41218;55.700;38.270;2022-08-19T11:12:51;5.03;;;3.15;;
55346;SDS011;41218;55.700;38.270;2022-08-19T11:17:55;5.28;;;3.22;;
55346;SDS011;41218;55.700;38.270;2022-08-19T11:22:57;7.03;;;3.17;;
55346;SDS011;41218;55.700;38.270;2022-08-19T11:28:00;6.93;;;3.33;;
55346;SDS011;41218;55.700;38.270;2022-08-19T11:33:01;5.93;;;3.20;;
55346;SDS011;41218;55.700;38.270;2022-08-19T11:38:11;10.20;;;3.50;;
55346;SDS011;41218;55.700;38.270;2022-08-19T11:43:14;5.45;;;3.40;;
55346;SDS011;41218;55.700;38.270;2022-08-19T11:48:15;4.57;;;3.30;;
55346;SDS011;41218;55.700;38.270;2022-08-19T11:53:19;4.93;;;2.95;;
55346;SDS011;41218;55.700;38.270;2022-08-19T11:58:20;5.18;;;3.28;;
55346;SDS011;41218;55.700;38.270;2022-08-19T12:03:21;7.45;;;3.30;;
55346;SDS011;41218;55.700;38.270;2022-08-19T12:08:25;9.82;;;3.47;;
55346;SDS011;41218;55.700;38.270;2022-08-19T12:13:29;4.18;;;3.40;;
55346;SDS011;41218;55.700;38.270;2022-08-19T12:18:30;4.63;;;3.17;;
55346;SDS011;41218;55.700;38.270;2022-08-19T12:23:31;4.60;;;3.30;;
55346;SDS011;41218;55.700;38.270;2022-08-19T12:28:32;8.85;;;3.40;;
55346;SDS011;41218;55.700;38.270;2022-08-19T12:33:32;5.93;;;3.38;;
55346;SDS011;41218;55.700;38.270;2022-08-19T12:38:33;8.07;;;3.67;;
55346;SDS011;41218;55.700;38.270;2022-08-19T12:43:35;6.20;;;3.47;;
55346;SDS011;41218;55.700;38.270;2022-08-19T12:48:38;7.30;;;3.70;;
55346;SDS011;41218;55.700;38.270;2022-08-19T12:53:41;7.35;;;3.20;;
55346;SDS011;41218;55.700;38.270;2022-08-19T12:58:45;3.40;;;3.10;;
55346;SDS011;41218;55.700;38.270;2022-08-19T13:03:48;5.82;;;3.63;;
55346;SDS011;41218;55.700;38.270;2022-08-19T13:08:55;4.95;;;3.45;;
55346;SDS011;41218;55.700;38.270;2022-08-19T13:14:00;4.25;;;3.70;;
55346;SDS011;41218;55.700;38.270;2022-08-19T13:19:03;9.77;;;3.55;;
55346;SDS011;41218;55.700;38.270;2022-08-19T13:24:05;8.23;;;3.63;;
55346;SDS011;41218;55.700;38.270;2022-08-19T13:29:06;7.47;;;4.00;;
55346;SDS011;41218;55.700;38.270;2022-08-19T13:34:29;8.95;;;3.67;;
55346;SDS011;41218;55.700;38.270;2022-08-19T13:39:33;6.05;;;3.90;;
55346;SDS011;41218;55.700;38.270;2022-08-19T13:44:37;7.45;;;3.80;;
55346;SDS011;41218;55.700;38.270;2022-08-19T13:49:41;3.67;;;3.10;;
55346;SDS011;41218;55.700;38.270;2022-08-19T13:54:42;5.05;;;3.65;;
55346;SDS011;41218;55.700;38.270;2022-08-19T13:59:43;6.15;;;3.60;;
55346;SDS011;41218;55.700;38.270;2022-08-19T14:04:44;4.65;;;3.83;;
55346;SDS011;41218;55.700;38.270;2022-08-19T14:09:45;5.20;;;3.33;;
55346;SDS011;41218;55.700;38.270;2022-08-19T14:14:45;5.30;;;3.33;;
55346;SDS011;41218;55.700;38.270;2022-08-19T14:19:47;12.40;;;3.58;;
55346;SDS011;41218;55.700;38.270;2022-08-19T14:24:48;6.95;;;3.55;;
55346;SDS011;41218;55.700;38.270;2022-08-19T14:29:50;5.05;;;3.13;;
55346;SDS011;41218;55.700;38.270;2022-08-19T14:34:53;4.95;;;3.60;;
55346;SDS011;41218;55.700;38.270;2022-08-19T14:39:54;4.60;;;3.72;;
55346;SDS011;41218;55.700;38.270;2022-08-19T14:44:58;6.60;;;3.88;;
55346;SDS011;41218;55.700;38.270;2022-08-19T14:49:59;6.05;;;3.38;;
55346;SDS011;41218;55.700;38.270;2022-08-19T14:55:00;6.30;;;3.70;;
55346;SDS011;41218;55.700;38.270;2022-08-19T15:00:05;6.97;;;3.58;;
55346;SDS011;41218;55.700;38.270;2022-08-19T15:05:07;5.00;;;3.53;;
55346;SDS011;41218;55.700;38.270;2022-08-19T15:10:09;3.72;;;3.10;;
55346;SDS011;41218;55.700;38.270;2022-08-19T15:15:13;6.68;;;3.65;;
55346;SDS011;41218;55.700;38.270;2022-08-19T15:20:18;6.60;;;3.42;;
55346;SDS011;41218;55.700;38.270;2022-08-19T15:25:20;4.82;;;3.20;;
55346;SDS011;41218;55.700;38.270;2022-08-19T15:30:24;6.20;;;3.80;;
55346;SDS011;41218;55.700;38.270;2022-08-19T15:35:27;3.72;;;3.30;;
55346;SDS011;41218;55.700;38.270;2022-08-19T15:40:28;5.68;;;3.35;;
55346;SDS011;41218;55.700;38.270;2022-08-19T15:45:29;6.20;;;3.05;;
55346;SDS011;41218;55.700;38.270;2022-08-19T15:50:33;6.00;;;3.10;;
55346;SDS011;41218;55.700;38.270;2022-08-19T15:55:36;4.18;;;3.30;;
55346;SDS011;41218;55.700;38.270;2022-08-19T16:00:42;8.10;;;3.20;;
55346;SDS011;41218;55.700;38.270;2022-08-19T16:06:01;5.10;;;3.35;;
55346;SDS011;41218;55.700;38.270;2022-08-19T16:11:21;4.80;;;3.45;;
55346;SDS011;41218;55.700;38.270;2022-08-19T16:16:25;7.78;;;3.55;;
55346;SDS011;41218;55.700;38.270;2022-08-19T16:21:28;6.30;;;3.28;;
55346;SDS011;41218;55.700;38.270;2022-08-19T16:26:32;6.95;;;3.30;;
55346;SDS011;41218;55.700;38.270;2022-08-19T16:31:34;6.07;;;3.72;;
55346;SDS011;41218;55.700;38.270;2022-08-19T16:36:35;6.30;;;3.40;;
55346;SDS011;41218;55.700;38.270;2022-08-19T16:41:38;5.07;;;3.53;;
55346;SDS011;41218;55.700;38.270;2022-08-19T16:46:40;3.72;;;3.17;;
55346;SDS011;41218;55.700;38.270;2022-08-19T16:51:41;5.10;;;3.50;;
55346;SDS011;41218;55.700;38.270;2022-08-19T16:56:44;4.63;;;3.47;;
55346;SDS011;41218;55.700;38.270;2022-08-19T17:01:44;4.18;;;3.47;;
55346;SDS011;41218;55.700;38.270;2022-08-19T17:06:45;6.07;;;3.33;;
55346;SDS011;41218;55.700;38.270;2022-08-19T17:11:46;5.93;;;3.50;;
55346;SDS011;41218;55.700;38.270;2022-08-19T17:16:47;5.78;;;3.47;;
55346;SDS011;41218;55.700;38.270;2022-08-19T17:21:48;4.55;;;3.53;;
55346;SDS011;41218;55.700;38.270;2022-08-19T17:26:51;4.25;;;3.40;;
55346;SDS011;41218;55.700;38.270;2022-08-19T17:31:52;4.50;;;3.30;;
55346;SDS011;41218;55.700;38.270;2022-08-19T17:36:53;4.95;;;3.30;;
55346;SDS011;41218;55.700;38.270;2022-08-19T17:41:58;4.38;;;3.25;;
55346;SDS011;41218;55.700;38.270;2022-08-19T17:46:58;6.03;;;3.50;;
55346;SDS011;41218;55.700;38.270;2022-08-19T17:52:05;5.65;;;3.28;;
55346;SDS011;41218;55.700;38.270;2022-08-19T17:57:11;6.47;;;3.47;;
55346;SDS011;41218;55.700;38.270;2022-08-19T18:02:18;6.07;;;3.70;;
55346;SDS011;41218;55.700;38.270;2022-08-19T18:07:21;5.40;;;3.50;;
55346;SDS011;41218;55.700;38.270;2022-08-19T18:12:23;6.10;;;3.78;;
55346;SDS011;41218;55.700;38.270;2022-08-19T18:17:25;8.18;;;4.32;;
55346;SDS011;41218;55.700;38.270;2022-08-19T18:22:30;6.10;;;3.45;;
55346;SDS011;41218;55.700;38.270;2022-08-19T18:27:35;5.03;;;3.40;;
55346;SDS011;41218;55.700;38.270;2022-08-19T18:32:37;4.35;;;2.95;;
55346;SDS011;41218;55.700;38.270;2022-08-19T18:37:44;6.53;;;3.03;;
55346;SDS011;41218;55.700;38.270;2022-08-19T18:42:50;5.63;;;3.17;;
55346;SDS011;41218;55.700;38.270;2022-08-19T18:48:19;5.53;;;3.10;;
55346;SDS011;41218;55.700;38.270;2022-08-19T18:53:39;12.45;;;3.38;;
55346;SDS011;41218;55.700;38.270;2022-08-19T18:58:42;7.93;;;3.03;;
55346;SDS011;41218;55.700;38.270;2022-08-19T19:03:49;8.13;;;3.72;;
55346;SDS011;41218;55.700;38.270;2022-08-19T19:08:52;7.22;;;3.38;;
55346;SDS011;41218;55.700;38.270;2022-08-19T19:13:57;5.32;;;3.45;;
55346;SDS011;41218;55.700;38.270;2022-08-19T19:19:01;6.82;;;3.50;;
55346;SDS011;41218;55.700;38.270;2022-08-19T19:24:09;6.88;;;3.67;;
55346;SDS011;41218;55.700;38.270;2022-08-19T19:29:13;7.50;;;3.50;;
55346;SDS011;41218;55.700;38.270;2022-08-19T19:34:13;10.02;;;3.75;;
55346;SDS011;41218;55.700;38.270;2022-08-19T19:39:14;6.18;;;3.45;;
55346;SDS011;41218;55.700;38.270;2022-08-19T19:44:15;7.15;;;3.45;;
55346;SDS011;41218;55.700;38.270;2022-08-19T19:49:16;6.65;;;3.60;;
55346;SDS011;41218;55.700;38.270;2022-08-19T19:54:19;6.32;;;3.67;;
55346;SDS011;41218;55.700;38.270;2022-08-19T19:59:20;4.90;;;3.40;;
55346;SDS011;41218;55.700;38.270;2022-08-19T20:04:23;6.45;;;3.35;;
55346;SDS011;41218;55.700;38.270;2022-08-19T20:09:26;4.50;;;3.38;;
55346;SDS011;41218;55.700;38.270;2022-08-19T20:14:28;8.45;;;3.42;;
55346;SDS011;41218;55.700;38.270;2022-08-19T20:19:31;4.60;;;3.08;;
55346;SDS011;41218;55.700;38.270;2022-08-19T20:24:36;7.75;;;3.25;;
55346;SDS011;41218;55.700;38.270;2022-08-19T20:29:38;6.88;;;3.15;;
55346;SDS011;41218;55.700;38.270;2022-08-19T20:34:41;5.30;;;3.10;;
55346;SDS011;41218;55.700;38.270;2022-08-19T20:39:46;4.82;;;2.65;;
55346;SDS011;41218;55.700;38.270;2022-08-19T20:44:57;5.97;;;3.28;;
55346;SDS011;41218;55.700;38.270;2022-08-19T20:49:57;8.50;;;3.20;;
55346;SDS011;41218;55.700;38.270;2022-08-19T20:54:59;5.22;;;3.00;;
55346;SDS011;41218;55.700;38.270;2022-08-19T21:00:00;6.15;;;3.30;;
55346;SDS011;41218;55.700;38.270;2022-08-19T21:05:05;8.32;;;2.78;;
55346;SDS011;41218;55.700;38.270;2022-08-19T21:10:14;8.02;;;3.08;;
55346;SDS011;41218;55.700;38.270;2022-08-19T21:15:26;5.25;;;3.30;;
55346;SDS011;41218;55.700;38.270;2022-08-19T21:26:48;7.43;;;3.65;;
55346;SDS011;41218;55.700;38.270;2022-08-19T21:49:48;11.65;;;6.38;;
55346;SDS011;41218;55.700;38.270;2022-08-19T21:54:51;14.93;;;7.75;;
55346;SDS011;41218;55.700;38.270;2022-08-19T21:59:58;17.02;;;9.13;;
55346;SDS011;41218;55.700;38.270;2022-08-19T22:10:42;29.55;;;12.52;;
55346;SDS011;41218;55.700;38.270;2022-08-19T22:15:46;21.23;;;12.40;;
55346;SDS011;41218;55.700;38.270;2022-08-19T22:20:58;23.27;;;12.65;;
55346;SDS011;41218;55.700;38.270;2022-08-19T22:26:03;29.83;;;13.52;;
55346;SDS011;41218;55.700;38.270;2022-08-19T22:31:14;22.08;;;12.25;;
55346;SDS011;41218;55.700;38.270;2022-08-19T22:36:45;23.33;;;11.80;;
55346;SDS011;41218;55.700;38.270;2022-08-19T22:47:03;22.40;;;13.20;;
55346;SDS011;41218;55.700;38.270;2022-08-19T22:52:15;20.83;;;12.20;;
55346;SDS011;41218;55.700;38.270;2022-08-19T22:57:19;20.42;;;11.65;;
55346;SDS011;41218;55.700;38.270;2022-08-19T23:02:25;23.65;;;13.35;;
55346;SDS011;41218;55.700;38.270;2022-08-19T23:07:28;27.08;;;15.60;;
55346;SDS011;41218;55.700;38.270;2022-08-19T23:12:30;25.63;;;15.82;;
55346;SDS011;41218;55.700;38.270;2022-08-19T23:17:32;26.55;;;16.17;;
55346;SDS011;41218;55.700;38.270;2022-08-19T23:22:37;36.00;;;17.00;;
55346;SDS011;41218;55.700;38.270;2022-08-19T23:27:49;29.00;;;16.90;;
55346;SDS011;41218;55.700;38.270;2022-08-19T23:38:26;30.17;;;19.95;;
55346;SDS011;41218;55.700;38.270;2022-08-19T23:43:45;31.27;;;18.98;;
55346;SDS011;41218;55.700;38.270;2022-08-19T23:48:58;30.55;;;19.90;;
55346;SDS011;41218;55.700;38.270;2022-08-19T23:54:02;36.63;;;19.88;;
55346;SDS011;41218;55.700;38.270;2022-08-19T23:59:03;29.17;;;18.77;;
